sensor_id;sensor_type;location;lat;lon;timestamp;P1;durP1;ratioP1;P2;durP2;ratioP2
18340;SDS011;9296;48.084;16.352;2022-12-29T00:00:37;46.40;;;20.37;;
18340;SDS011;9296;48.084;16.352;2022-12-29T00:03:04;38.20;;;20.10;;
18340;SDS011;9296;48.084;16.352;2022-12-29T00:05:31;41.03;;;20.80;;
18340;SDS011;9296;48.084;16.352;2022-12-29T00:07:59;39.63;;;19.20;;
18340;SDS011;9296;48.084;16.352;2022-12-29T00:10:27;37.47;;;18.13;;
18340;SDS011;9296;48.084;16.352;2022-12-29T00:19:04;32.37;;;16.40;;
18340;SDS011;9296;48.084;16.352;2022-12-29T00:21:51;27.97;;;14.80;;
18340;SDS011;9296;48.084;16.352;2022-12-29T00:24:36;30.47;;;14.70;;
18340;SDS011;9296;48.084;16.352;2022-12-29T00:27:22;25.63;;;13.93;;
18340;SDS011;9296;48.084;16.352;2022-12-29T00:30:08;29.97;;;13.90;;
18340;SDS011;9296;48.084;16.352;2022-12-29T00:32:52;27.33;;;12.93;;
18340;SDS011;9296;48.084;16.352;2022-12-29T00:35:38;25.90;;;13.23;;
18340;SDS011;9296;48.084;16.352;2022-12-29T00:38:06;26.07;;;13.13;;
18340;SDS011;9296;48.084;16.352;2022-12-29T00:40:51;25.53;;;13.27;;
18340;SDS011;9296;48.084;16.352;2022-12-29T00:43:56;25.37;;;12.63;;
18340;SDS011;9296;48.084;16.352;2022-12-29T00:46:32;23.10;;;12.17;;
18340;SDS011;9296;48.084;16.352;2022-12-29T00:49:00;22.23;;;11.90;;
18340;SDS011;9296;48.084;16.352;2022-12-29T00:51:44;25.07;;;12.13;;
18340;SDS011;9296;48.084;16.352;2022-12-29T00:54:12;24.53;;;12.30;;
18340;SDS011;9296;48.084;16.352;2022-12-29T00:56:39;33.00;;;15.40;;
18340;SDS011;9296;48.084;16.352;2022-12-29T00:59:08;46.73;;;22.70;;
18340;SDS011;9296;48.084;16.352;2022-12-29T01:01:36;38.83;;;17.63;;
18340;SDS011;9296;48.084;16.352;2022-12-29T01:04:04;24.63;;;14.23;;
18340;SDS011;9296;48.084;16.352;2022-12-29T01:06:31;40.00;;;20.13;;
18340;SDS011;9296;48.084;16.352;2022-12-29T01:08:58;41.60;;;21.87;;
18340;SDS011;9296;48.084;16.352;2022-12-29T01:11:42;27.57;;;14.77;;
18340;SDS011;9296;48.084;16.352;2022-12-29T01:14:11;25.50;;;13.40;;
18340;SDS011;9296;48.084;16.352;2022-12-29T01:16:38;23.20;;;12.60;;
18340;SDS011;9296;48.084;16.352;2022-12-29T01:19:05;22.33;;;11.93;;
18340;SDS011;9296;48.084;16.352;2022-12-29T01:21:32;23.17;;;12.17;;
18340;SDS011;9296;48.084;16.352;2022-12-29T01:24:00;20.90;;;11.87;;
18340;SDS011;9296;48.084;16.352;2022-12-29T01:26:27;22.80;;;11.60;;
18340;SDS011;9296;48.084;16.352;2022-12-29T01:28:54;22.90;;;12.13;;
18340;SDS011;9296;48.084;16.352;2022-12-29T01:31:23;24.33;;;11.33;;
18340;SDS011;9296;48.084;16.352;2022-12-29T01:33:50;21.37;;;11.50;;
18340;SDS011;9296;48.084;16.352;2022-12-29T01:36:17;20.97;;;11.43;;
18340;SDS011;9296;48.084;16.352;2022-12-29T01:38:45;23.37;;;10.77;;
18340;SDS011;9296;48.084;16.352;2022-12-29T01:41:13;22.57;;;12.33;;
18340;SDS011;9296;48.084;16.352;2022-12-29T01:43:42;22.27;;;11.70;;
18340;SDS011;9296;48.084;16.352;2022-12-29T01:46:13;21.73;;;10.93;;
18340;SDS011;9296;48.084;16.352;2022-12-29T01:48:44;28.73;;;14.80;;
18340;SDS011;9296;48.084;16.352;2022-12-29T01:51:12;25.60;;;13.73;;
18340;SDS011;9296;48.084;16.352;2022-12-29T01:53:39;19.07;;;10.53;;
18340;SDS011;9296;48.084;16.352;2022-12-29T01:56:07;20.00;;;10.60;;
18340;SDS011;9296;48.084;16.352;2022-12-29T01:58:37;21.53;;;10.80;;
18340;SDS011;9296;48.084;16.352;2022-12-29T02:01:06;25.10;;;14.03;;
18340;SDS011;9296;48.084;16.352;2022-12-29T02:03:33;19.70;;;11.07;;
18340;SDS011;9296;48.084;16.352;2022-12-29T02:06:04;21.80;;;11.37;;
18340;SDS011;9296;48.084;16.352;2022-12-29T02:08:34;22.23;;;11.13;;
18340;SDS011;9296;48.084;16.352;2022-12-29T02:11:01;23.03;;;12.03;;
18340;SDS011;9296;48.084;16.352;2022-12-29T02:16:56;23.50;;;11.07;;
18340;SDS011;9296;48.084;16.352;2022-12-29T02:19:39;20.50;;;11.57;;
18340;SDS011;9296;48.084;16.352;2022-12-29T02:22:15;23.27;;;11.37;;
18340;SDS011;9296;48.084;16.352;2022-12-29T02:27:34;21.13;;;10.60;;
18340;SDS011;9296;48.084;16.352;2022-12-29T02:30:10;19.47;;;10.40;;
18340;SDS011;9296;48.084;16.352;2022-12-29T02:32:43;20.07;;;10.00;;
18340;SDS011;9296;48.084;16.352;2022-12-29T02:35:14;17.47;;;10.20;;
18340;SDS011;9296;48.084;16.352;2022-12-29T02:37:49;21.47;;;10.17;;
18340;SDS011;9296;48.084;16.352;2022-12-29T02:40:21;18.87;;;10.10;;
18340;SDS011;9296;48.084;16.352;2022-12-29T02:42:51;20.50;;;10.23;;
18340;SDS011;9296;48.084;16.352;2022-12-29T02:45:22;17.90;;;9.93;;
18340;SDS011;9296;48.084;16.352;2022-12-29T02:47:54;18.70;;;10.00;;
18340;SDS011;9296;48.084;16.352;2022-12-29T02:50:25;17.77;;;10.13;;
18340;SDS011;9296;48.084;16.352;2022-12-29T02:52:54;18.63;;;10.23;;
18340;SDS011;9296;48.084;16.352;2022-12-29T02:55:24;19.07;;;10.70;;
18340;SDS011;9296;48.084;16.352;2022-12-29T02:58:03;19.50;;;10.17;;
18340;SDS011;9296;48.084;16.352;2022-12-29T03:00:33;21.40;;;10.57;;
18340;SDS011;9296;48.084;16.352;2022-12-29T03:03:11;20.27;;;10.27;;
18340;SDS011;9296;48.084;16.352;2022-12-29T03:05:45;15.07;;;9.47;;
18340;SDS011;9296;48.084;16.352;2022-12-29T03:08:18;19.60;;;9.33;;
18340;SDS011;9296;48.084;16.352;2022-12-29T03:10:52;18.67;;;10.07;;
18340;SDS011;9296;48.084;16.352;2022-12-29T03:19:30;17.20;;;9.87;;
18340;SDS011;9296;48.084;16.352;2022-12-29T03:21:59;20.73;;;9.83;;
18340;SDS011;9296;48.084;16.352;2022-12-29T03:24:46;18.20;;;9.77;;
18340;SDS011;9296;48.084;16.352;2022-12-29T03:27:15;17.47;;;9.27;;
18340;SDS011;9296;48.084;16.352;2022-12-29T03:32:48;16.70;;;9.17;;
18340;SDS011;9296;48.084;16.352;2022-12-29T03:35:18;16.37;;;9.47;;
18340;SDS011;9296;48.084;16.352;2022-12-29T03:37:49;18.13;;;9.90;;
18340;SDS011;9296;48.084;16.352;2022-12-29T03:40:17;18.33;;;9.73;;
18340;SDS011;9296;48.084;16.352;2022-12-29T03:45:36;17.63;;;9.43;;
18340;SDS011;9296;48.084;16.352;2022-12-29T03:48:04;19.43;;;9.47;;
18340;SDS011;9296;48.084;16.352;2022-12-29T03:50:32;20.23;;;9.07;;
18340;SDS011;9296;48.084;16.352;2022-12-29T03:53:00;17.87;;;9.53;;
18340;SDS011;9296;48.084;16.352;2022-12-29T03:55:27;16.50;;;9.40;;
18340;SDS011;9296;48.084;16.352;2022-12-29T03:57:54;18.07;;;9.07;;
18340;SDS011;9296;48.084;16.352;2022-12-29T04:00:21;16.53;;;9.20;;
18340;SDS011;9296;48.084;16.352;2022-12-29T04:02:48;18.63;;;9.63;;
18340;SDS011;9296;48.084;16.352;2022-12-29T04:05:16;19.27;;;9.60;;
18340;SDS011;9296;48.084;16.352;2022-12-29T04:07:44;16.60;;;9.23;;
18340;SDS011;9296;48.084;16.352;2022-12-29T04:10:11;15.83;;;8.90;;
18340;SDS011;9296;48.084;16.352;2022-12-29T04:12:38;16.60;;;9.10;;
18340;SDS011;9296;48.084;16.352;2022-12-29T04:15:07;16.87;;;9.37;;
18340;SDS011;9296;48.084;16.352;2022-12-29T04:17:34;15.53;;;8.73;;
18340;SDS011;9296;48.084;16.352;2022-12-29T04:20:01;16.37;;;8.83;;
18340;SDS011;9296;48.084;16.352;2022-12-29T04:22:42;18.60;;;9.33;;
18340;SDS011;9296;48.084;16.352;2022-12-29T04:25:11;16.13;;;9.20;;
18340;SDS011;9296;48.084;16.352;2022-12-29T04:27:38;17.47;;;9.60;;
18340;SDS011;9296;48.084;16.352;2022-12-29T04:30:06;16.80;;;8.93;;
18340;SDS011;9296;48.084;16.352;2022-12-29T04:32:33;16.97;;;9.30;;
18340;SDS011;9296;48.084;16.352;2022-12-29T04:35:00;16.80;;;9.50;;
18340;SDS011;9296;48.084;16.352;2022-12-29T04:37:27;17.93;;;9.30;;
18340;SDS011;9296;48.084;16.352;2022-12-29T04:39:55;16.10;;;9.20;;
18340;SDS011;9296;48.084;16.352;2022-12-29T04:42:23;18.87;;;9.00;;
18340;SDS011;9296;48.084;16.352;2022-12-29T04:44:51;15.40;;;8.40;;
18340;SDS011;9296;48.084;16.352;2022-12-29T04:47:18;15.70;;;8.77;;
18340;SDS011;9296;48.084;16.352;2022-12-29T04:49:45;16.00;;;8.83;;
18340;SDS011;9296;48.084;16.352;2022-12-29T04:52:12;15.50;;;8.83;;
18340;SDS011;9296;48.084;16.352;2022-12-29T04:54:39;13.97;;;8.27;;
18340;SDS011;9296;48.084;16.352;2022-12-29T04:57:06;18.23;;;8.97;;
18340;SDS011;9296;48.084;16.352;2022-12-29T04:59:35;18.20;;;9.43;;
18340;SDS011;9296;48.084;16.352;2022-12-29T05:02:02;17.13;;;9.40;;
18340;SDS011;9296;48.084;16.352;2022-12-29T05:04:29;19.10;;;9.57;;
18340;SDS011;9296;48.084;16.352;2022-12-29T05:06:57;18.43;;;8.40;;
18340;SDS011;9296;48.084;16.352;2022-12-29T05:09:24;15.43;;;8.43;;
18340;SDS011;9296;48.084;16.352;2022-12-29T05:11:52;17.40;;;9.13;;
18340;SDS011;9296;48.084;16.352;2022-12-29T05:14:19;14.80;;;8.77;;
18340;SDS011;9296;48.084;16.352;2022-12-29T05:16:47;16.57;;;8.97;;
18340;SDS011;9296;48.084;16.352;2022-12-29T05:19:15;18.53;;;9.00;;
18340;SDS011;9296;48.084;16.352;2022-12-29T05:21:42;16.80;;;9.80;;
18340;SDS011;9296;48.084;16.352;2022-12-29T05:24:09;19.00;;;9.60;;
18340;SDS011;9296;48.084;16.352;2022-12-29T05:26:36;18.40;;;9.93;;
18340;SDS011;9296;48.084;16.352;2022-12-29T05:29:04;24.20;;;12.40;;
18340;SDS011;9296;48.084;16.352;2022-12-29T05:31:31;22.03;;;11.80;;
18340;SDS011;9296;48.084;16.352;2022-12-29T05:33:59;18.37;;;11.33;;
18340;SDS011;9296;48.084;16.352;2022-12-29T05:36:27;24.03;;;12.33;;
18340;SDS011;9296;48.084;16.352;2022-12-29T05:38:54;22.30;;;11.87;;
18340;SDS011;9296;48.084;16.352;2022-12-29T05:41:21;21.53;;;11.43;;
18340;SDS011;9296;48.084;16.352;2022-12-29T05:43:49;20.93;;;11.97;;
18340;SDS011;9296;48.084;16.352;2022-12-29T05:46:16;20.13;;;11.50;;
18340;SDS011;9296;48.084;16.352;2022-12-29T05:48:43;20.63;;;11.00;;
18340;SDS011;9296;48.084;16.352;2022-12-29T05:51:12;19.40;;;11.23;;
18340;SDS011;9296;48.084;16.352;2022-12-29T05:53:39;23.10;;;12.67;;
18340;SDS011;9296;48.084;16.352;2022-12-29T05:56:06;21.67;;;12.33;;
18340;SDS011;9296;48.084;16.352;2022-12-29T05:58:33;23.43;;;14.57;;
18340;SDS011;9296;48.084;16.352;2022-12-29T06:01:01;23.80;;;14.50;;
18340;SDS011;9296;48.084;16.352;2022-12-29T06:03:28;30.77;;;18.90;;
18340;SDS011;9296;48.084;16.352;2022-12-29T06:05:55;38.53;;;22.40;;
18340;SDS011;9296;48.084;16.352;2022-12-29T06:08:23;33.80;;;16.83;;
18340;SDS011;9296;48.084;16.352;2022-12-29T06:10:51;31.93;;;16.07;;
18340;SDS011;9296;48.084;16.352;2022-12-29T06:13:18;25.03;;;14.13;;
18340;SDS011;9296;48.084;16.352;2022-12-29T06:15:47;21.47;;;12.17;;
18340;SDS011;9296;48.084;16.352;2022-12-29T06:18:14;21.37;;;11.40;;
18340;SDS011;9296;48.084;16.352;2022-12-29T06:20:41;23.20;;;12.37;;
18340;SDS011;9296;48.084;16.352;2022-12-29T06:23:09;23.40;;;11.93;;
18340;SDS011;9296;48.084;16.352;2022-12-29T06:25:38;24.67;;;11.83;;
18340;SDS011;9296;48.084;16.352;2022-12-29T06:34:12;21.37;;;11.67;;
18340;SDS011;9296;48.084;16.352;2022-12-29T06:36:40;23.70;;;10.90;;
18340;SDS011;9296;48.084;16.352;2022-12-29T06:39:07;21.17;;;11.10;;
18340;SDS011;9296;48.084;16.352;2022-12-29T06:41:35;22.80;;;12.23;;
18340;SDS011;9296;48.084;16.352;2022-12-29T06:44:21;20.67;;;10.90;;
18340;SDS011;9296;48.084;16.352;2022-12-29T06:46:48;21.00;;;11.10;;
18340;SDS011;9296;48.084;16.352;2022-12-29T06:49:16;20.90;;;11.13;;
18340;SDS011;9296;48.084;16.352;2022-12-29T06:51:43;21.33;;;11.77;;
18340;SDS011;9296;48.084;16.352;2022-12-29T06:54:10;25.17;;;12.20;;
18340;SDS011;9296;48.084;16.352;2022-12-29T06:56:39;22.07;;;11.43;;
18340;SDS011;9296;48.084;16.352;2022-12-29T07:02:10;23.97;;;11.47;;
18340;SDS011;9296;48.084;16.352;2022-12-29T07:04:38;22.40;;;12.17;;
18340;SDS011;9296;48.084;16.352;2022-12-29T07:07:05;21.70;;;11.53;;
18340;SDS011;9296;48.084;16.352;2022-12-29T07:09:32;20.40;;;10.97;;
18340;SDS011;9296;48.084;16.352;2022-12-29T07:12:01;20.67;;;10.83;;
18340;SDS011;9296;48.084;16.352;2022-12-29T07:14:28;23.90;;;11.80;;
18340;SDS011;9296;48.084;16.352;2022-12-29T07:16:55;22.70;;;11.20;;
18340;SDS011;9296;48.084;16.352;2022-12-29T07:19:22;26.13;;;11.53;;
18340;SDS011;9296;48.084;16.352;2022-12-29T07:21:50;24.60;;;12.00;;
18340;SDS011;9296;48.084;16.352;2022-12-29T07:24:17;25.40;;;11.90;;
18340;SDS011;9296;48.084;16.352;2022-12-29T07:26:44;22.57;;;12.13;;
18340;SDS011;9296;48.084;16.352;2022-12-29T07:29:13;26.37;;;12.30;;
18340;SDS011;9296;48.084;16.352;2022-12-29T07:31:40;29.47;;;12.97;;
18340;SDS011;9296;48.084;16.352;2022-12-29T07:34:07;29.53;;;13.57;;
18340;SDS011;9296;48.084;16.352;2022-12-29T07:36:35;29.43;;;13.40;;
18340;SDS011;9296;48.084;16.352;2022-12-29T07:39:02;33.63;;;14.23;;
18340;SDS011;9296;48.084;16.352;2022-12-29T07:41:30;34.83;;;13.90;;
18340;SDS011;9296;48.084;16.352;2022-12-29T07:43:57;36.97;;;14.73;;
18340;SDS011;9296;48.084;16.352;2022-12-29T07:46:25;37.20;;;14.70;;
18340;SDS011;9296;48.084;16.352;2022-12-29T07:48:52;41.43;;;15.27;;
18340;SDS011;9296;48.084;16.352;2022-12-29T07:51:20;39.20;;;15.50;;
18340;SDS011;9296;48.084;16.352;2022-12-29T07:53:47;42.23;;;15.10;;
18340;SDS011;9296;48.084;16.352;2022-12-29T07:56:14;38.57;;;16.47;;
18340;SDS011;9296;48.084;16.352;2022-12-29T08:01:46;43.00;;;16.80;;
18340;SDS011;9296;48.084;16.352;2022-12-29T08:04:13;60.27;;;18.00;;
18340;SDS011;9296;48.084;16.352;2022-12-29T08:06:40;43.40;;;16.90;;
18340;SDS011;9296;48.084;16.352;2022-12-29T08:09:07;56.73;;;18.20;;
18340;SDS011;9296;48.084;16.352;2022-12-29T08:11:35;67.60;;;19.20;;
18340;SDS011;9296;48.084;16.352;2022-12-29T08:14:02;61.63;;;18.27;;
18340;SDS011;9296;48.084;16.352;2022-12-29T08:16:29;62.83;;;19.27;;
18340;SDS011;9296;48.084;16.352;2022-12-29T08:18:58;60.57;;;19.00;;
18340;SDS011;9296;48.084;16.352;2022-12-29T08:21:26;64.63;;;18.13;;
18340;SDS011;9296;48.084;16.352;2022-12-29T08:23:53;71.80;;;17.87;;
18340;SDS011;9296;48.084;16.352;2022-12-29T08:26:21;48.93;;;16.87;;
18340;SDS011;9296;48.084;16.352;2022-12-29T08:28:48;39.87;;;16.83;;
18340;SDS011;9296;48.084;16.352;2022-12-29T08:31:16;39.07;;;16.93;;
18340;SDS011;9296;48.084;16.352;2022-12-29T08:33:43;36.37;;;16.93;;
18340;SDS011;9296;48.084;16.352;2022-12-29T08:36:11;38.00;;;16.17;;
18340;SDS011;9296;48.084;16.352;2022-12-29T08:38:39;30.37;;;14.43;;
18340;SDS011;9296;48.084;16.352;2022-12-29T08:41:06;28.83;;;12.97;;
18340;SDS011;9296;48.084;16.352;2022-12-29T08:43:33;28.57;;;14.47;;
18340;SDS011;9296;48.084;16.352;2022-12-29T08:46:00;40.47;;;14.60;;
18340;SDS011;9296;48.084;16.352;2022-12-29T08:48:28;53.43;;;14.47;;
18340;SDS011;9296;48.084;16.352;2022-12-29T08:50:55;87.33;;;14.77;;
18340;SDS011;9296;48.084;16.352;2022-12-29T08:53:23;99.23;;;16.17;;
18340;SDS011;9296;48.084;16.352;2022-12-29T08:55:54;91.77;;;17.57;;
18340;SDS011;9296;48.084;16.352;2022-12-29T08:58:21;62.23;;;16.20;;
18340;SDS011;9296;48.084;16.352;2022-12-29T09:00:49;75.30;;;16.97;;
18340;SDS011;9296;48.084;16.352;2022-12-29T09:03:16;89.03;;;17.57;;
18340;SDS011;9296;48.084;16.352;2022-12-29T09:05:46;58.47;;;16.23;;
18340;SDS011;9296;48.084;16.352;2022-12-29T09:08:14;55.43;;;17.07;;
18340;SDS011;9296;48.084;16.352;2022-12-29T09:10:42;59.23;;;17.33;;
18340;SDS011;9296;48.084;16.352;2022-12-29T09:13:10;63.23;;;17.07;;
18340;SDS011;9296;48.084;16.352;2022-12-29T09:18:41;95.53;;;19.40;;
18340;SDS011;9296;48.084;16.352;2022-12-29T09:21:09;74.93;;;17.40;;
18340;SDS011;9296;48.084;16.352;2022-12-29T09:23:37;76.63;;;17.00;;
18340;SDS011;9296;48.084;16.352;2022-12-29T09:26:05;59.17;;;17.53;;
18340;SDS011;9296;48.084;16.352;2022-12-29T09:34:39;62.87;;;16.57;;
18340;SDS011;9296;48.084;16.352;2022-12-29T09:37:07;62.40;;;18.10;;
18340;SDS011;9296;48.084;16.352;2022-12-29T09:39:34;59.00;;;18.23;;
18340;SDS011;9296;48.084;16.352;2022-12-29T09:42:03;67.13;;;18.53;;
18340;SDS011;9296;48.084;16.352;2022-12-29T09:44:38;60.70;;;18.10;;
18340;SDS011;9296;48.084;16.352;2022-12-29T09:47:10;79.70;;;18.47;;
18340;SDS011;9296;48.084;16.352;2022-12-29T09:49:39;57.50;;;18.73;;
18340;SDS011;9296;48.084;16.352;2022-12-29T09:52:11;46.57;;;19.10;;
18340;SDS011;9296;48.084;16.352;2022-12-29T09:54:41;70.13;;;18.40;;
18340;SDS011;9296;48.084;16.352;2022-12-29T09:57:18;66.80;;;21.93;;
18340;SDS011;9296;48.084;16.352;2022-12-29T10:02:54;46.47;;;18.57;;
18340;SDS011;9296;48.084;16.352;2022-12-29T10:05:27;50.60;;;18.20;;
18340;SDS011;9296;48.084;16.352;2022-12-29T10:08:00;49.13;;;19.00;;
18340;SDS011;9296;48.084;16.352;2022-12-29T10:10:34;46.43;;;18.20;;
18340;SDS011;9296;48.084;16.352;2022-12-29T10:13:08;45.80;;;19.60;;
18340;SDS011;9296;48.084;16.352;2022-12-29T10:18:50;58.77;;;19.10;;
18340;SDS011;9296;48.084;16.352;2022-12-29T10:21:23;77.17;;;19.53;;
18340;SDS011;9296;48.084;16.352;2022-12-29T10:23:54;83.13;;;19.67;;
18340;SDS011;9296;48.084;16.352;2022-12-29T10:26:22;77.33;;;19.27;;
18340;SDS011;9296;48.084;16.352;2022-12-29T10:28:52;91.53;;;19.93;;
18340;SDS011;9296;48.084;16.352;2022-12-29T10:31:20;86.93;;;19.33;;
18340;SDS011;9296;48.084;16.352;2022-12-29T10:33:48;97.87;;;19.20;;
18340;SDS011;9296;48.084;16.352;2022-12-29T10:36:18;83.00;;;20.33;;
18340;SDS011;9296;48.084;16.352;2022-12-29T10:38:48;74.00;;;19.37;;
18340;SDS011;9296;48.084;16.352;2022-12-29T10:41:18;88.40;;;19.90;;
18340;SDS011;9296;48.084;16.352;2022-12-29T10:49:56;61.17;;;19.03;;
18340;SDS011;9296;48.084;16.352;2022-12-29T10:52:25;53.90;;;19.67;;
18340;SDS011;9296;48.084;16.352;2022-12-29T10:54:54;54.77;;;19.03;;
18340;SDS011;9296;48.084;16.352;2022-12-29T10:57:25;60.50;;;18.50;;
18340;SDS011;9296;48.084;16.352;2022-12-29T11:06:03;47.80;;;19.27;;
18340;SDS011;9296;48.084;16.352;2022-12-29T11:08:34;56.50;;;18.07;;
18340;SDS011;9296;48.084;16.352;2022-12-29T11:11:02;58.77;;;18.77;;
18340;SDS011;9296;48.084;16.352;2022-12-29T11:13:46;54.37;;;19.60;;
18340;SDS011;9296;48.084;16.352;2022-12-29T11:16:14;45.03;;;18.10;;
18340;SDS011;9296;48.084;16.352;2022-12-29T11:18:41;72.53;;;19.20;;
18340;SDS011;9296;48.084;16.352;2022-12-29T11:21:25;60.13;;;19.13;;
18340;SDS011;9296;48.084;16.352;2022-12-29T11:23:55;63.90;;;18.97;;
18340;SDS011;9296;48.084;16.352;2022-12-29T11:26:23;48.93;;;19.53;;
18340;SDS011;9296;48.084;16.352;2022-12-29T11:34:58;49.13;;;19.83;;
18340;SDS011;9296;48.084;16.352;2022-12-29T11:37:28;51.20;;;20.58;;
18340;SDS011;9296;48.084;16.352;2022-12-29T11:39:56;52.50;;;19.73;;
18340;SDS011;9296;48.084;16.352;2022-12-29T11:42:29;57.58;;;21.33;;
18340;SDS011;9296;48.084;16.352;2022-12-29T11:44:58;49.40;;;19.77;;
18340;SDS011;9296;48.084;16.352;2022-12-29T11:47:30;55.25;;;20.42;;
18340;SDS011;9296;48.084;16.352;2022-12-29T11:49:59;46.95;;;19.08;;
18340;SDS011;9296;48.084;16.352;2022-12-29T11:52:30;46.42;;;19.88;;
18340;SDS011;9296;48.084;16.352;2022-12-29T11:55:00;50.45;;;21.02;;
18340;SDS011;9296;48.084;16.352;2022-12-29T11:57:28;53.40;;;21.13;;
18340;SDS011;9296;48.084;16.352;2022-12-29T11:59:55;47.60;;;19.90;;
18340;SDS011;9296;48.084;16.352;2022-12-29T12:02:30;50.47;;;20.70;;
18340;SDS011;9296;48.084;16.352;2022-12-29T12:05:01;47.95;;;19.65;;
18340;SDS011;9296;48.084;16.352;2022-12-29T12:07:34;54.97;;;21.13;;
18340;SDS011;9296;48.084;16.352;2022-12-29T12:10:04;51.75;;;21.52;;
18340;SDS011;9296;48.084;16.352;2022-12-29T12:12:34;48.50;;;21.10;;
18340;SDS011;9296;48.084;16.352;2022-12-29T12:15:02;50.17;;;20.60;;
18340;SDS011;9296;48.084;16.352;2022-12-29T12:17:31;50.10;;;20.80;;
18340;SDS011;9296;48.084;16.352;2022-12-29T12:20:03;51.87;;;21.87;;
18340;SDS011;9296;48.084;16.352;2022-12-29T12:22:32;50.53;;;20.98;;
18340;SDS011;9296;48.084;16.352;2022-12-29T12:25:03;50.10;;;21.30;;
18340;SDS011;9296;48.084;16.352;2022-12-29T12:27:37;48.63;;;21.70;;
18340;SDS011;9296;48.084;16.352;2022-12-29T12:30:09;45.87;;;19.53;;
18340;SDS011;9296;48.084;16.352;2022-12-29T12:32:39;43.33;;;19.35;;
18340;SDS011;9296;48.084;16.352;2022-12-29T12:35:10;42.67;;;20.55;;
18340;SDS011;9296;48.084;16.352;2022-12-29T12:37:42;42.53;;;19.60;;
18340;SDS011;9296;48.084;16.352;2022-12-29T12:43:01;40.95;;;19.80;;
18340;SDS011;9296;48.084;16.352;2022-12-29T12:45:37;43.42;;;20.25;;
18340;SDS011;9296;48.084;16.352;2022-12-29T12:48:13;43.60;;;20.50;;
18340;SDS011;9296;48.084;16.352;2022-12-29T12:50:46;41.85;;;20.17;;
18340;SDS011;9296;48.084;16.352;2022-12-29T12:53:18;46.88;;;20.23;;
18340;SDS011;9296;48.084;16.352;2022-12-29T12:58:44;46.08;;;19.98;;
18340;SDS011;9296;48.084;16.352;2022-12-29T13:04:25;49.58;;;21.20;;
18340;SDS011;9296;48.084;16.352;2022-12-29T13:06:56;45.30;;;20.92;;
18340;SDS011;9296;48.084;16.352;2022-12-29T13:09:31;42.70;;;20.40;;
18340;SDS011;9296;48.084;16.352;2022-12-29T13:12:05;42.92;;;20.45;;
18340;SDS011;9296;48.084;16.352;2022-12-29T13:17:59;40.05;;;20.10;;
18340;SDS011;9296;48.084;16.352;2022-12-29T13:20:31;41.45;;;19.20;;
18340;SDS011;9296;48.084;16.352;2022-12-29T13:23:05;42.85;;;20.65;;
18340;SDS011;9296;48.084;16.352;2022-12-29T13:25:35;40.72;;;20.45;;
18340;SDS011;9296;48.084;16.352;2022-12-29T13:28:06;44.15;;;21.05;;
18340;SDS011;9296;48.084;16.352;2022-12-29T13:33:44;43.00;;;20.83;;
18340;SDS011;9296;48.084;16.352;2022-12-29T13:36:20;43.35;;;20.52;;
18340;SDS011;9296;48.084;16.352;2022-12-29T13:38:50;43.78;;;21.88;;
18340;SDS011;9296;48.084;16.352;2022-12-29T13:41:24;43.33;;;20.45;;
18340;SDS011;9296;48.084;16.352;2022-12-29T13:43:53;40.95;;;20.80;;
18340;SDS011;9296;48.084;16.352;2022-12-29T13:49:26;40.70;;;20.40;;
18340;SDS011;9296;48.084;16.352;2022-12-29T13:51:54;42.67;;;20.63;;
18340;SDS011;9296;48.084;16.352;2022-12-29T13:54:25;42.72;;;20.42;;
18340;SDS011;9296;48.084;16.352;2022-12-29T13:56:55;41.08;;;19.95;;
18340;SDS011;9296;48.084;16.352;2022-12-29T13:59:29;39.90;;;19.15;;
18340;SDS011;9296;48.084;16.352;2022-12-29T14:02:08;44.13;;;20.55;;
18340;SDS011;9296;48.084;16.352;2022-12-29T14:04:41;43.78;;;21.00;;
18340;SDS011;9296;48.084;16.352;2022-12-29T14:07:21;40.33;;;20.40;;
18340;SDS011;9296;48.084;16.352;2022-12-29T14:09:49;41.60;;;20.08;;
18340;SDS011;9296;48.084;16.352;2022-12-29T14:12:21;43.58;;;21.33;;
18340;SDS011;9296;48.084;16.352;2022-12-29T14:14:52;46.35;;;21.25;;
18340;SDS011;9296;48.084;16.352;2022-12-29T14:17:20;41.45;;;20.90;;
18340;SDS011;9296;48.084;16.352;2022-12-29T14:19:52;40.83;;;20.38;;
18340;SDS011;9296;48.084;16.352;2022-12-29T14:22:22;46.58;;;21.10;;
18340;SDS011;9296;48.084;16.352;2022-12-29T14:24:50;44.58;;;20.15;;
18340;SDS011;9296;48.084;16.352;2022-12-29T14:33:03;43.33;;;20.25;;
18340;SDS011;9296;48.084;16.352;2022-12-29T14:35:41;46.95;;;22.65;;
18340;SDS011;9296;48.084;16.352;2022-12-29T14:41:16;46.17;;;21.98;;
18340;SDS011;9296;48.084;16.352;2022-12-29T14:43:51;48.22;;;21.98;;
18340;SDS011;9296;48.084;16.352;2022-12-29T14:49:22;48.35;;;22.10;;
18340;SDS011;9296;48.084;16.352;2022-12-29T14:51:52;47.15;;;22.48;;
18340;SDS011;9296;48.084;16.352;2022-12-29T14:57:03;52.28;;;23.67;;
18340;SDS011;9296;48.084;16.352;2022-12-29T14:59:32;46.30;;;21.30;;
18340;SDS011;9296;48.084;16.352;2022-12-29T15:02:00;41.13;;;20.00;;
18340;SDS011;9296;48.084;16.352;2022-12-29T15:04:30;45.20;;;21.97;;
18340;SDS011;9296;48.084;16.352;2022-12-29T15:06:59;47.00;;;22.37;;
18340;SDS011;9296;48.084;16.352;2022-12-29T15:09:29;43.97;;;21.20;;
18340;SDS011;9296;48.084;16.352;2022-12-29T15:12:01;51.50;;;22.23;;
18340;SDS011;9296;48.084;16.352;2022-12-29T15:20:37;47.97;;;21.97;;
18340;SDS011;9296;48.084;16.352;2022-12-29T15:23:08;47.27;;;22.93;;
18340;SDS011;9296;48.084;16.352;2022-12-29T15:25:36;53.40;;;23.35;;
18340;SDS011;9296;48.084;16.352;2022-12-29T15:28:04;47.55;;;21.38;;
18340;SDS011;9296;48.084;16.352;2022-12-29T15:33:18;61.22;;;23.92;;
18340;SDS011;9296;48.084;16.352;2022-12-29T15:35:48;58.80;;;23.05;;
18340;SDS011;9296;48.084;16.352;2022-12-29T15:38:20;57.33;;;23.70;;
18340;SDS011;9296;48.084;16.352;2022-12-29T15:40:51;53.10;;;22.40;;
18340;SDS011;9296;48.084;16.352;2022-12-29T15:43:24;51.87;;;22.17;;
18340;SDS011;9296;48.084;16.352;2022-12-29T15:45:54;47.77;;;22.30;;
18340;SDS011;9296;48.084;16.352;2022-12-29T15:48:22;52.47;;;22.00;;
18340;SDS011;9296;48.084;16.352;2022-12-29T15:50:50;47.57;;;21.53;;
18340;SDS011;9296;48.084;16.352;2022-12-29T15:53:19;48.63;;;22.20;;
18340;SDS011;9296;48.084;16.352;2022-12-29T15:55:53;49.97;;;21.47;;
18340;SDS011;9296;48.084;16.352;2022-12-29T15:58:22;52.80;;;22.23;;
18340;SDS011;9296;48.084;16.352;2022-12-29T16:01:15;51.90;;;22.63;;
18340;SDS011;9296;48.084;16.352;2022-12-29T16:03:43;48.03;;;22.50;;
18340;SDS011;9296;48.084;16.352;2022-12-29T16:06:24;56.93;;;22.93;;
18340;SDS011;9296;48.084;16.352;2022-12-29T16:08:56;48.87;;;22.17;;
18340;SDS011;9296;48.084;16.352;2022-12-29T16:11:25;48.50;;;21.50;;
18340;SDS011;9296;48.084;16.352;2022-12-29T16:13:53;48.47;;;21.83;;
18340;SDS011;9296;48.084;16.352;2022-12-29T16:16:22;49.47;;;21.37;;
18340;SDS011;9296;48.084;16.352;2022-12-29T16:18:50;46.37;;;21.83;;
18340;SDS011;9296;48.084;16.352;2022-12-29T16:21:19;46.20;;;21.30;;
18340;SDS011;9296;48.084;16.352;2022-12-29T16:23:47;47.00;;;21.47;;
18340;SDS011;9296;48.084;16.352;2022-12-29T16:26:16;49.20;;;22.47;;
18340;SDS011;9296;48.084;16.352;2022-12-29T16:28:45;48.23;;;22.20;;
18340;SDS011;9296;48.084;16.352;2022-12-29T16:31:18;52.47;;;22.43;;